Latest Coastal Weather Observations for Rottnest Island

IDW60701

Issued at 6:42 am WST Friday 6 March 2015 (issued every 10 minutes, with the page automatically refreshed every 10 minutes)

About coastal observations | Map of coastal stations | Coastal observations for WA | Marine services | Other Formats
Station Details ID: 009193 Name: ROTTNEST ISLAND Lat: -32.01 Lon: 115.50 Height: 43.1 m
Data from the previous 72 hours. | See also: Recent months at Rottnest Island
Date/Time
WST
Temp

°C
Wind Pressure Rain
since 9am
mm
Weather Cloud Vis
km
Sea
Height
m
Swell
Dir
 
Speed
knots
Gust
knots
hPa Trend Height
m
Period
s
Dir
06/06:30am 20.4 ENE 12 16 1020.3 - 0.0 - - - - - - -
06/06:00am 20.6 ENE 12 15 1020.1 - 0.0 - - - - - - -
06/05:30am 20.9 ENE 11 15 1019.8 - 0.0 - - - - - - -
06/05:00am 21.2 ENE 12 15 1019.7 - 0.0 - - - - - - -
06/04:30am 21.5 ENE 13 16 1019.7 - 0.0 - - - - - - -
06/04:00am 21.6 ENE 12 15 1019.4 - 0.0 - - - - - - -
06/03:30am 21.9 ENE 13 17 1019.6 - 0.0 - - - - - - -
06/03:00am 22.0 E 13 17 1019.6 - 0.0 - - - - - - -
06/02:30am 22.4 E 11 15 1019.6 - 0.0 - - - - - - -
06/02:00am 22.8 E 13 18 1019.4 - 0.0 - - - - - - -
06/01:30am 23.4 ESE 13 19 1019.5 - 0.0 - - - - - - -
06/01:00am 23.1 ESE 10 14 1019.8 - 0.0 - - - - - - -
06/12:30am 22.8 SE 10 11 1019.9 - 0.0 - - - - - - -
06/12:00am 22.8 SE 10 12 1020.1 - 0.0 - - - - - - -
 
Date/Time
WST
Temp

°C
Wind Pressure Rain
since 9am
mm
Weather Cloud Vis
km
Sea
Height
m
Swell
Dir
 
Speed
knots
Gust
knots
hPa Trend Height
m
Period
s
Dir
05/11:30pm 23.0 SE 9 11 1020.0 - 0.0 - - - - - - -
05/11:00pm 23.1 SE 12 15 1020.0 - 0.0 - - - - - - -
05/10:30pm 22.4 SSE 11 14 1020.3 - 0.0 - - - - - - -
05/10:00pm 22.1 SSE 12 17 1020.5 - 0.0 - - - - - - -
05/09:30pm 22.2 SSE 14 18 1020.7 - 0.0 - - - - - - -
05/09:00pm 22.3 S 17 21 1020.6 - 0.0 - - - - - - -
05/08:30pm 22.3 S 19 23 1020.1 - 0.0 - - - - - - -
05/08:00pm 22.4 S 21 26 1019.6 - 0.0 - - - - - - -
05/07:30pm 22.4 S 22 26 1019.2 - 0.0 - - - - - - -
05/07:00pm 22.6 S 23 30 1019.0 - 0.0 - - - - - - -
05/06:30pm 23.4 S 19 24 1018.7 - 0.0 - - - - - - -
05/06:00pm 23.6 S 17 22 1018.8 - 0.0 - - - - - - -
05/05:30pm 23.9 S 18 23 1018.7 - 0.0 - - - - - - -
05/05:00pm 24.2 S 17 22 1018.7 - 0.0 - - - - - - -
05/04:30pm 24.3 S 18 23 1018.7 - 0.0 - - - - - - -
05/04:00pm 24.7 SSW 17 20 1018.9 - 0.0 - - - - - - -
05/03:30pm 24.2 SSW 18 22 1019.1 - 0.0 - - - - - - -
05/03:00pm 24.6 SSW 15 19 1019.5 - 0.0 - - - - - - -
05/02:30pm 25.3 SSW 13 16 1019.9 - 0.0 - - - - - - -
05/02:00pm 25.4 SSW 13 15 1020.4 - 0.0 - - - - - - -
05/01:30pm 26.0 S 10 13 1020.8 - 0.0 - - - - - - -
05/01:00pm 26.3 S 11 14 1021.2 - 0.0 - - - - - - -
05/12:30pm 28.3 SSE 11 15 1021.5 - 0.0 - - - - - - -
05/12:00pm 27.3 ESE 10 15 1021.9 - 0.0 - - - - - - -
05/11:30am 26.7 ESE 10 15 1022.4 - 0.0 - - - - - - -
05/11:00am 25.5 E 11 16 1022.8 - 0.0 - - - - - - -
05/10:30am 24.7 E 12 18 1023.2 - 0.0 - - - - - - -
05/10:00am 23.7 E 12 17 1023.5 - 0.0 - - - - - - -
05/09:30am 22.6 ENE 13 18 1023.7 - 0.0 - - - - - - -
05/09:00am 22.1 ENE 13 19 1023.5 - 0.0 - - - - - - -
05/08:30am 21.4 ENE 15 20 1023.4 - 0.0 - - - - - - -
05/08:00am 20.9 ENE 15 21 1023.2 - 0.0 - - - - - - -
05/07:30am 20.3 ENE 15 22 1023.1 - 0.0 - - - - - - -
05/07:00am 19.8 ENE 16 22 1022.8 - 0.0 - - - - - - -
05/06:30am 19.4 ENE 15 22 1022.4 - 0.0 - - - - - - -
05/06:00am 19.4 ENE 16 21 1022.2 - 0.0 - - - - - - -
05/05:30am 19.6 E 17 24 1021.9 - 0.0 - - - - - - -
05/05:00am 19.8 E 16 21 1021.7 - 0.0 - - - - - - -
05/04:30am 20.1 E 16 23 1021.5 - 0.0 - - - - - - -
05/04:00am 20.4 E 17 23 1021.3 - 0.0 - - - - - - -
05/03:30am 20.8 E 16 25 1021.1 - 0.0 - - - - - - -
05/03:00am 21.2 E 16 23 1021.1 - 0.0 - - - - - - -
05/02:30am 21.6 E 15 23 1020.9 - 0.0 - - - - - - -
05/02:00am 22.3 E 17 24 1020.7 - 0.0 - - - - - - -
05/01:30am 22.8 E 13 21 1020.8 - 0.0 - - - - - - -
05/01:00am 23.3 E 12 20 1020.8 - 0.0 - - - - - - -
05/12:30am 24.0 E 13 19 1020.7 - 0.0 - - - - - - -
05/12:00am 24.2 E 14 21 1020.5 - 0.0 - - - - - - -
 
Date/Time
WST
Temp

°C
Wind Pressure Rain
since 9am
mm
Weather Cloud Vis
km
Sea
Height
m
Swell
Dir
 
Speed
knots
Gust
knots
hPa Trend Height
m
Period
s
Dir
04/11:30pm 24.9 ESE 16 23 1020.4 - 0.0 - - - - - - -
04/11:00pm 25.1 ESE 16 21 1020.2 - 0.0 - - - - - - -
04/10:30pm 24.4 ESE 11 15 1020.2 - 0.0 - - - - - - -
04/10:00pm 22.8 SE 9 12 1020.2 - 0.0 - - - - - - -
04/09:30pm 22.6 SSE 11 13 1020.2 - 0.0 - - - - - - -
04/09:00pm 22.3 S 13 17 1020.1 - 0.0 - - - - - - -
04/08:30pm 22.2 S 14 17 1019.7 - 0.0 - - - - - - -
04/08:00pm 22.2 S 16 20 1019.4 - 0.0 - - - - - - -
04/07:30pm 22.1 S 16 20 1019.2 - 0.0 - - - - - - -
04/07:00pm 22.0 S 15 20 1019.1 - 0.0 - - - - - - -
04/06:30pm 22.4 S 16 21 1018.9 - 0.0 - - - - - - -
04/06:00pm 22.8 SSW 18 23 1018.9 - 0.0 - - - - - - -
04/05:30pm 23.3 SSW 16 20 1018.8 - 0.0 - - - - - - -
04/05:00pm 23.4 SSW 17 21 1018.6 - 0.0 - - - - - - -
04/04:30pm 23.9 SSW 17 21 1018.6 - 0.0 - - - - - - -
04/04:00pm 23.7 SSW 18 22 1018.8 - 0.0 - - - - - - -
04/03:30pm 23.6 SSW 18 22 1018.8 - 0.0 - - - - - - -
04/03:00pm 23.8 SSW 17 20 1018.9 - 0.0 - - - - - - -
04/02:30pm 23.7 SSW 17 21 1019.1 - 0.0 - - - - - - -
04/02:00pm 23.5 SSW 16 19 1019.6 - 0.0 - - - - - - -
04/01:30pm 24.0 SSW 15 17 1020.0 - 0.0 - - - - - - -
04/01:00pm 24.7 S 14 16 1020.1 - 0.0 - - - - - - -
04/12:30pm 25.1 S 12 15 1020.5 - 0.0 - - - - - - -
04/12:00pm 24.3 SSE 11 13 1020.9 - 0.0 - - - - - - -
04/11:30am 24.2 SSE 11 13 1021.2 - 0.0 - - - - - - -
04/11:00am 24.6 SE 11 16 1021.6 - 0.0 - - - - - - -
04/10:30am 24.0 ESE 10 15 1021.6 - 0.0 - - - - - - -
04/10:00am 23.4 ESE 11 15 1021.7 - 0.0 - - - - - - -
04/09:30am 22.6 ESE 9 16 1021.8 - 0.0 - - - - - - -
04/09:00am 21.4 ESE 11 18 1021.9 - 0.0 - - - - - - -
04/08:30am 21.0 ESE 12 16 1021.8 - 0.0 - - - - - - -
04/08:00am 20.5 ESE 10 15 1021.8 - 0.0 - - - - - - -
04/07:30am 20.1 E 12 17 1021.5 - 0.0 - - - - - - -
04/07:00am 19.3 ESE 11 15 1021.4 - 0.0 - - - - - - -
04/06:30am 18.7 ESE 10 14 1021.0 - 0.0 - - - - - - -
04/06:00am 18.7 E 9 14 1020.5 - 0.0 - - - - - - -
04/05:30am 18.8 ESE 7 11 1020.2 - 0.0 - - - - - - -
04/05:00am 19.2 ESE 14 19 1019.5 - 0.0 - - - - - - -
04/04:30am 19.8 E 15 22 1019.3 - 0.0 - - - - - - -
04/04:00am 20.2 ESE 12 17 1019.1 - 0.0 - - - - - - -
04/03:30am 20.5 ESE 14 21 1019.0 - 0.0 - - - - - - -
04/03:00am 20.7 ESE 12 20 1019.0 - 0.0 - - - - - - -
04/02:30am 20.9 ESE 13 19 1018.8 - 0.0 - - - - - - -
04/02:00am 21.2 ESE 13 19 1018.8 - 0.0 - - - - - - -
04/01:30am 21.5 E 14 23 1018.8 - 0.0 - - - - - - -
04/01:00am 22.0 E 15 21 1018.8 - 0.0 - - - - - - -
04/12:30am 22.4 E 15 22 1018.8 - 0.0 - - - - - - -
04/12:00am 22.8 E 12 17 1018.7 - 0.0 - - - - - - -
 
Date/Time
WST
Temp

°C
Wind Pressure Rain
since 9am
mm
Weather Cloud Vis
km
Sea
Height
m
Swell
Dir
 
Speed
knots
Gust
knots
hPa Trend Height
m
Period
s
Dir
03/11:30pm 23.2 ESE 12 17 1018.7 - 0.0 - - - - - - -
03/11:00pm 23.4 SE 14 19 1018.7 - 0.0 - - - - - - -
03/10:30pm 23.6 SE 17 21 1018.6 - 0.0 - - - - - - -
03/10:00pm 23.1 SE 14 19 1018.5 - 0.0 - - - - - - -
03/09:30pm 22.9 SSE 17 21 1018.4 - 0.0 - - - - - - -
03/09:00pm 22.6 SSE 17 21 1018.1 - 0.0 - - - - - - -
03/08:32pm 22.7 SSE 18 28 1017.9 - 0.0 - - - - - - -
03/08:30pm 22.8 SSE 20 28 1017.9 - 0.0 - - - - - - -
03/08:00pm 22.5 S 21 26 1017.2 - 0.0 - - - - - - -
03/07:30pm 22.0 S 19 24 1017.0 - 0.0 - - - - - - -
03/07:00pm 21.8 S 20 24 1016.8 - 0.0 - - - - - - -
03/06:30pm 22.0 SSW 21 26 1016.6 - 0.0 - - - - - - -
03/06:00pm 22.4 SSW 21 26 1016.4 - 0.0 - - - - - - -
03/05:30pm 22.8 SSW 21 27 1016.4 - 0.0 - - - - - - -
03/05:00pm 23.2 S 21 27 1016.4 - 0.0 - - - - - - -
03/04:30pm 23.6 S 22 27 1016.5 - 0.0 - - - - - - -
03/04:00pm 23.7 S 21 26 1016.5 - 0.0 - - - - - - -
03/03:30pm 24.3 S 19 25 1016.8 - 0.0 - - - - - - -
03/03:00pm 23.9 S 20 27 1016.9 - 0.0 - - - - - - -
03/02:30pm 23.9 SSW 19 22 1017.6 - 0.0 - - - - - - -
03/02:00pm 23.5 SSW 19 22 1017.9 - 0.0 - - - - - - -
03/01:30pm 24.2 SSW 18 21 1018.3 - 0.0 - - - - - - -
03/01:00pm 23.7 SSW 16 19 1018.6 - 0.0 - - - - - - -
03/12:30pm 23.8 S 14 16 1018.8 - 0.0 - - - - - - -
03/12:00pm 24.2 SSE 11 13 1019.2 - 0.0 - - - - - - -
03/11:30am 24.5 SSE 12 15 1019.4 - 0.0 - - - - - - -
03/11:00am 22.8 SSE 12 14 1019.8 - 0.0 - - - - - - -
03/10:30am 23.7 SE 13 18 1020.0 - 0.0 - - - - - - -
03/10:00am 22.5 SE 13 17 1020.1 - 0.0 - - - - - - -
03/09:30am 21.8 ESE 12 17 1020.3 - 0.0 - - - - - - -
03/09:00am 21.1 ESE 12 17 1020.3 - 0.0 - - - - - - -
03/08:30am 20.6 ESE 12 18 1020.2 - 0.0 - - - - - - -
03/08:00am 19.8 SE 13 21 1020.1 - 0.0 - - - - - - -
03/07:30am 19.1 SE 14 19 1020.0 - 0.0 - - - - - - -
03/07:00am 18.6 SE 13 17 1019.8 - 0.0 - - - - - - -

Other Formats:

Comma delimited format used in spreadsheet applications
http://www.bom.gov.au/fwo/IDW60701/IDW60701.94602.axf

JavaScript Object Notation format (JSON) in row-major order
http://www.bom.gov.au/fwo/IDW60701/IDW60701.94602.json